ダカール の空港の天気 - METARとTAF

レオポール・セダール・サンゴール国際空港 ( GOOY / DKR ) - セネガル ダカール
飛行場実況気象(Metar)
観測時間07/22 18:00 GMT (07/22 18:00 UTC)
風向・風速西北西 3m/s
視程10km以上
天気現象
なし
気温29℃
湿度66%
気圧1010hPa
METARGOOY 221800Z 30006KT CAVOK 29/22 Q1010
過去の天気等 Google飛行場航空写真 Wunderground天気予報

過去48時間のMETAR

飛行場予報(TAF)
発表時間: 7/22 17:30 GMT (7/22 17:30 UTC)
予報対象時間: 22日18時 GMT ~ 24日0時 GMT
風向・風速西 4m/s
視程10km以上
全天の4割程度の雲 雲底高度 400m
TAF GOOY 221730Z 2218/2324 26007KT 9999 SCT013